Time;durP1;ratioP1;P1;durP2;ratioP2;P2;SDS_P1;SDS_P2;PMS_P1;PMS_P2;Temp;Humidity;BMP_temperature;BMP_pressure;BME280_temperature;BME280_humidity;BME280_pressure;Samples;Min_cycle;Max_cycle;Signal;HPM_P1;HPM_P2
2022/12/09 00:03:12;;;;;;;0.35;0.35;;;;;;;-0.12;96.74;100556.94;10447822;28;20509;-79
2022/12/09 00:08:13;;;;;;;0.40;0.40;;;;;;;-0.12;96.95;100554.34;10448109;28;20057;-81
2022/12/09 00:13:16;;;;;;;2.28;1.33;;;;;;;-0.15;96.84;100552.53;10455486;28;20527;-79
2022/12/09 00:18:18;;;;;;;0.82;0.70;;;;;;;-0.19;96.77;100553.16;10445469;28;20057;-78
2022/12/09 00:23:20;;;;;;;0.80;0.73;;;;;;;-0.29;96.63;100551.72;10446910;28;20037;-79
2022/12/09 00:28:21;;;;;;;0.45;0.45;;;;;;;-0.42;96.66;100557.88;10461547;28;20041;-78
2022/12/09 00:33:23;;;;;;;1.00;0.70;;;;;;;-0.48;96.61;100554.94;10446015;28;20052;-78
2022/12/09 00:38:24;;;;;;;1.42;1.15;;;;;;;-0.56;96.43;100562.19;10453823;28;20467;-81
2022/12/09 00:43:26;;;;;;;1.90;1.55;;;;;;;-0.62;96.17;100564.41;10444215;28;20119;-79
2022/12/09 00:48:28;;;;;;;0.55;0.55;;;;;;;-0.58;96.27;100556.09;10452463;28;20064;-79
2022/12/09 00:53:31;;;;;;;0.15;0.15;;;;;;;-0.63;96.10;100544.66;10442592;28;20076;-78
2022/12/09 00:58:33;;;;;;;0.13;0.13;;;;;;;-0.70;96.05;100550.22;10443569;28;20496;-81
2022/12/09 01:03:35;;;;;;;0.47;0.47;;;;;;;-0.81;96.31;100562.47;10443379;28;20098;-82
2022/12/09 01:08:37;;;;;;;0.75;0.75;;;;;;;-0.81;96.09;100562.47;10443231;28;20520;-82
2022/12/09 01:13:40;;;;;;;0.55;0.55;;;;;;;-0.83;96.39;100552.88;10442106;28;20132;-78
2022/12/09 01:18:43;;;;;;;0.50;0.50;;;;;;;-0.87;96.36;100556.97;10443233;28;20049;-78
2022/12/09 01:23:44;;;;;;;0.95;0.82;;;;;;;-0.98;96.39;100558.00;10442407;28;20045;-77
2022/12/09 01:28:51;;;;;;;1.17;1.08;;;;;;;-1.10;96.10;100573.56;10449606;28;20052;-81
2022/12/09 01:33:54;;;;;;;0.57;0.52;;;;;;;-1.18;96.16;100569.66;10458603;28;20094;-80
2022/12/09 01:38:58;;;;;;;0.45;0.45;;;;;;;-1.16;96.32;100573.19;10435293;28;20400;-79
2022/12/09 01:44:16;;;;;;;1.15;0.88;;;;;;;-1.18;96.21;100577.38;10447397;28;20482;-78
2022/12/09 01:49:41;;;;;;;0.35;0.35;;;;;;;-1.16;96.33;100568.06;10441980;28;20140;-77
2022/12/09 01:54:47;;;;;;;0.85;0.82;;;;;;;-1.12;96.62;100570.91;10449199;28;20047;-78
2022/12/09 01:59:49;;;;;;;0.65;0.63;;;;;;;-1.09;96.35;100559.94;10451264;28;20087;-80
2022/12/09 02:04:51;;;;;;;0.75;0.75;;;;;;;-1.03;96.29;100559.41;10450115;28;20487;-81
2022/12/09 02:09:53;;;;;;;1.00;0.95;;;;;;;-1.04;96.91;100555.94;10447631;28;20068;-79
2022/12/09 02:15:22;;;;;;;0.32;0.32;;;;;;;-1.00;96.71;100552.75;10439776;28;20572;-80
2022/12/09 02:20:43;;;;;;;0.60;0.57;;;;;;;-0.98;96.80;100548.59;10455856;28;20071;-79
2022/12/09 02:25:55;;;;;;;1.15;0.70;;;;;;;-0.93;96.50;100548.88;10432315;28;20294;-77
2022/12/09 02:31:26;;;;;;;1.00;0.90;;;;;;;-0.91;96.85;100545.59;10447844;28;20133;-78
2022/12/09 02:36:39;;;;;;;1.88;1.30;;;;;;;-0.86;97.16;100543.28;10452583;28;20182;-81
2022/12/09 02:41:45;;;;;;;1.05;0.98;;;;;;;-0.84;96.90;100530.53;10431578;28;20458;-78
2022/12/09 02:46:48;;;;;;;1.42;1.30;;;;;;;-0.81;97.20;100530.69;10422651;28;20776;-77
2022/12/09 02:51:51;;;;;;;0.30;0.30;;;;;;;-0.87;96.93;100527.78;10430683;28;20037;-78
2022/12/09 02:56:58;;;;;;;1.98;1.30;;;;;;;-0.84;97.10;100522.81;10414194;28;20123;-79
2022/12/09 03:02:21;;;;;;;1.90;1.58;;;;;;;-0.85;96.83;100523.63;10445196;28;20452;-79
2022/12/09 03:07:46;;;;;;;1.35;1.25;;;;;;;-0.86;96.91;100517.59;10448390;28;20067;-77
2022/12/09 03:12:58;;;;;;;1.15;1.05;;;;;;;-0.90;96.97;100516.53;10447190;28;20132;-79
2022/12/09 03:18:06;;;;;;;0.45;0.45;;;;;;;-0.95;96.71;100523.06;10440850;28;20052;-76
2022/12/09 03:23:12;;;;;;;2.15;1.50;;;;;;;-1.00;97.02;100527.06;10438957;28;20740;-78
2022/12/09 03:28:23;;;;;;;2.03;1.83;;;;;;;-0.94;96.66;100509.44;10452989;28;20094;-78
2022/12/09 03:33:26;;;;;;;1.27;1.17;;;;;;;-0.95;96.64;100507.66;10437338;28;20056;-78
2022/12/09 03:38:34;;;;;;;0.98;0.95;;;;;;;-0.94;96.85;100516.25;10437646;28;20604;-78
2022/12/09 03:43:40;;;;;;;1.58;0.70;;;;;;;-0.89;97.03;100514.84;10435839;28;20052;-78
2022/12/09 03:48:41;;;;;;;0.35;0.35;;;;;;;-0.84;97.02;100521.16;10434688;28;20045;-78
2022/12/09 03:53:57;;;;;;;1.23;1.10;;;;;;;-0.79;96.81;100511.13;10438298;28;20052;-78
2022/12/09 03:59:02;;;;;;;1.45;1.33;;;;;;;-0.78;96.65;100512.88;10469905;28;20075;-79
2022/12/09 04:04:04;;;;;;;0.80;0.80;;;;;;;-0.82;96.93;100519.53;10437440;28;20042;-78
2022/12/09 04:09:06;;;;;;;0.98;0.90;;;;;;;-0.88;97.01;100514.06;10437150;28;20065;-78
2022/12/09 04:14:09;;;;;;;1.17;0.80;;;;;;;-0.93;96.60;100511.22;10459681;28;20055;-80
2022/12/09 04:19:16;;;;;;;0.50;0.50;;;;;;;-1.03;96.83;100508.00;10472080;28;20052;-79
2022/12/09 04:24:18;;;;;;;0.50;0.50;;;;;;;-1.16;96.51;100514.09;10440825;28;20553;-77
2022/12/09 04:29:19;;;;;;;0.20;0.20;;;;;;;-1.25;96.98;100517.00;10435213;28;20041;-78
2022/12/09 04:34:21;;;;;;;0.95;0.75;;;;;;;-1.35;96.31;100505.28;10438423;28;20037;-81
2022/12/09 04:39:23;;;;;;;1.20;1.02;;;;;;;-1.45;96.63;100513.22;10436831;28;20669;-78
2022/12/09 04:44:25;;;;;;;0.82;0.82;;;;;;;-1.49;96.41;100501.00;10440960;28;20040;-78
2022/12/09 04:49:26;;;;;;;1.08;0.98;;;;;;;-1.55;96.59;100503.19;10443984;28;20041;-77
2022/12/09 04:54:28;;;;;;;3.67;2.00;;;;;;;-1.63;96.50;100495.91;10442003;28;20045;-79
2022/12/09 04:59:30;;;;;;;0.47;0.47;;;;;;;-1.75;96.50;100494.28;10443269;28;20041;-78
2022/12/09 05:04:33;;;;;;;0.50;0.50;;;;;;;-1.85;96.45;100497.94;10443220;28;20127;-82
2022/12/09 05:09:35;;;;;;;0.98;0.85;;;;;;;-2.00;96.65;100496.22;10456705;28;20501;-81
2022/12/09 05:14:37;;;;;;;0.38;0.38;;;;;;;-2.12;96.89;100500.53;10441285;28;20068;-81
2022/12/09 05:19:38;;;;;;;1.55;1.45;;;;;;;-2.25;96.61;100506.59;10442096;28;20057;-79
2022/12/09 05:24:42;;;;;;;0.55;0.55;;;;;;;-2.36;96.29;100505.00;10463302;28;20036;-77
2022/12/09 05:29:45;;;;;;;0.73;0.73;;;;;;;-2.48;96.31;100502.53;10476255;28;20064;-77
2022/12/09 05:34:47;;;;;;;0.30;0.30;;;;;;;-2.62;96.44;100503.31;10473050;28;20814;-77
2022/12/09 05:39:49;;;;;;;0.13;0.13;;;;;;;-2.74;96.58;100495.72;10464688;28;20148;-79
2022/12/09 05:44:50;;;;;;;0.93;0.88;;;;;;;-2.78;96.59;100502.31;10441829;28;20041;-80
2022/12/09 05:49:52;;;;;;;1.67;1.58;;;;;;;-2.83;95.95;100501.13;10439730;28;20120;-77
2022/12/09 05:54:54;;;;;;;1.63;1.52;;;;;;;-2.90;96.45;100509.19;10440993;28;20041;-76
2022/12/09 05:59:56;;;;;;;1.65;1.45;;;;;;;-2.96;96.67;100499.41;10439698;28;20051;-77
2022/12/09 06:04:58;;;;;;;3.10;0.68;;;;;;;-3.05;96.56;100499.72;10442822;28;20052;-78
2022/12/09 06:10:00;;;;;;;0.68;0.68;;;;;;;-3.06;96.42;100492.81;10441786;28;20057;-78
2022/12/09 06:15:03;;;;;;;0.50;0.50;;;;;;;-3.08;96.79;100493.47;10433608;28;20040;-80
2022/12/09 06:20:07;;;;;;;1.80;1.30;;;;;;;-3.22;96.62;100490.00;10481508;28;20068;-79
2022/12/09 06:25:10;;;;;;;0.73;0.73;;;;;;;-3.32;96.86;100490.16;10470370;28;20052;-78
2022/12/09 06:30:13;;;;;;;1.70;1.42;;;;;;;-3.37;96.64;100498.41;10474327;28;20040;-80
2022/12/09 06:35:14;;;;;;;6.35;2.42;;;;;;;-3.41;96.52;100493.88;10458166;28;20033;-83
2022/12/09 06:40:17;;;;;;;1.20;1.10;;;;;;;-3.50;96.59;100488.09;10481680;28;20090;-79
2022/12/09 06:45:19;;;;;;;1.67;1.27;;;;;;;-3.49;96.66;100492.44;10473182;28;20076;-82
2022/12/09 06:50:21;;;;;;;2.20;1.75;;;;;;;-3.55;96.61;100487.78;10471597;28;20052;-79
2022/12/09 06:55:23;;;;;;;2.63;0.55;;;;;;;-3.63;96.51;100485.53;10469495;28;20566;-81
2022/12/09 07:00:24;;;;;;;0.80;0.75;;;;;;;-3.68;96.72;100492.84;10465598;28;20532;-78
2022/12/09 07:05:27;;;;;;;1.20;1.15;;;;;;;-3.68;96.93;100494.53;10476594;28;20040;-79
2022/12/09 07:10:29;;;;;;;0.40;0.40;;;;;;;-3.80;96.88;100500.59;10455527;28;20048;-78
2022/12/09 07:15:31;;;;;;;1.80;1.70;;;;;;;-3.83;96.63;100497.78;10449007;28;20122;-78
2022/12/09 07:20:33;;;;;;;1.50;1.40;;;;;;;-3.81;96.71;100495.38;10471569;28;20062;-78
2022/12/09 07:25:35;;;;;;;0.60;0.60;;;;;;;-3.86;96.79;100500.13;10460671;28;20072;-78
2022/12/09 07:30:37;;;;;;;1.25;1.15;;;;;;;-3.92;96.74;100499.72;10468317;28;20055;-80
2022/12/09 07:35:39;;;;;;;1.75;1.55;;;;;;;-3.95;96.73;100509.72;10476621;28;20577;-81
2022/12/09 07:40:41;;;;;;;0.95;0.77;;;;;;;-3.99;97.06;100510.31;10467436;28;20052;-78
2022/12/09 07:45:43;;;;;;;1.77;1.50;;;;;;;-3.93;96.68;100515.84;10477637;28;20047;-79
2022/12/09 07:50:45;;;;;;;3.38;2.50;;;;;;;-3.77;96.87;100525.47;10464174;28;20771;-76
2022/12/09 07:55:47;;;;;;;1.02;1.00;;;;;;;-3.81;97.08;100515.84;10459985;28;20041;-78
2022/12/09 08:00:48;;;;;;;12.90;1.67;;;;;;;-3.78;96.67;100527.16;10455158;28;20579;-78
2022/12/09 08:05:51;;;;;;;2.65;1.83;;;;;;;-3.73;96.90;100523.25;10455807;28;20040;-77
2022/12/09 08:10:54;;;;;;;0.60;0.60;;;;;;;-3.46;97.01;100533.63;10477393;28;20090;-78
2022/12/09 08:16:01;;;;;;;1.85;1.75;;;;;;;-3.18;97.42;100532.97;10453938;28;20041;-79
2022/12/09 08:21:05;;;;;;;1.38;1.15;;;;;;;-147.53;100.00;57128.34;10472583;28;20132;-80
2022/12/09 08:26:09;;;;;;;2.67;2.03;;;;;;;-147.53;100.00;57128.34;10475952;28;20555;-80
2022/12/09 08:31:14;;;;;;;2.95;2.28;;;;;;;-3.18;97.42;100532.97;10437386;28;20041;-79
2022/12/09 08:36:23;;;;;;;3.50;1.85;;;;;;;-2.63;97.45;100525.50;10474186;28;20037;-79
2022/12/09 08:41:33;;;;;;;1.30;0.95;;;;;;;-2.53;97.67;100527.88;10442528;28;20508;-80
2022/12/09 08:46:38;;;;;;;2.45;2.25;;;;;;;-2.46;98.02;100533.41;10442777;28;20607;-82
2022/12/09 08:51:40;;;;;;;0.45;0.45;;;;;;;-2.37;97.67;100540.03;10475834;28;20477;-82
2022/12/09 08:56:48;;;;;;;3.33;2.05;;;;;;;-2.26;97.95;100539.84;10442125;28;20061;-80
2022/12/09 09:01:50;;;;;;;2.35;2.10;;;;;;;-2.16;98.06;100532.81;10442874;28;20127;-82
2022/12/09 09:06:52;;;;;;;1.15;1.05;;;;;;;-2.17;98.07;100536.16;10442557;28;20033;-81
2022/12/09 09:11:55;;;;;;;0.47;0.47;;;;;;;-2.13;97.91;100535.59;10446530;28;20567;-80
2022/12/09 09:16:57;;;;;;;1.95;1.63;;;;;;;-2.08;98.01;100541.00;10444303;28;20071;-82
2022/12/09 09:21:59;;;;;;;1.83;1.67;;;;;;;-2.03;98.31;100537.03;10439961;28;20714;-81
2022/12/09 09:27:02;;;;;;;1.38;1.27;;;;;;;-2.01;98.41;100543.19;10441140;28;20037;-81
2022/12/09 09:32:04;;;;;;;1.80;1.45;;;;;;;-1.91;98.18;100539.50;10441741;28;20045;-81
2022/12/09 09:37:06;;;;;;;6.45;3.20;;;;;;;-1.93;98.67;100533.41;10440136;28;20055;-81
2022/12/09 09:42:22;;;;;;;1.02;0.90;;;;;;;-1.86;98.66;100544.91;10473512;28;20064;-80
2022/12/09 09:47:49;;;;;;;3.28;2.97;;;;;;;-1.82;98.65;100541.75;10465545;28;20053;-79
2022/12/09 09:52:53;;;;;;;3.30;1.67;;;;;;;-1.83;98.91;100533.19;10441107;28;20044;-79
2022/12/09 09:58:16;;;;;;;0.47;0.47;;;;;;;-1.68;98.60;100533.25;10422190;28;20045;-79
2022/12/09 10:03:30;;;;;;;0.50;0.50;;;;;;;-1.68;98.71;100535.81;10439713;28;20041;-78
2022/12/09 10:09:29;;;;;;;1.13;1.02;;;;;;;-1.69;99.07;100536.59;10437299;28;20080;-78
2022/12/09 10:15:03;;;;;;;2.30;1.90;;;;;;;-1.69;98.73;100531.47;10353798;28;20054;-77
2022/12/09 10:20:24;;;;;;;1.48;1.25;;;;;;;-1.61;98.96;100529.38;10396381;28;20129;-79
2022/12/09 10:25:30;;;;;;;2.97;1.70;;;;;;;-1.67;99.02;100531.56;10390276;28;20053;-80
2022/12/09 10:30:32;;;;;;;0.88;0.88;;;;;;;-1.66;99.09;100536.78;10399347;28;20087;-80
2022/12/09 10:35:45;;;;;;;1.80;1.67;;;;;;;-1.46;98.86;100532.00;10401511;28;20044;-81
2022/12/09 10:40:55;;;;;;;5.15;3.05;;;;;;;-1.52;99.18;100541.91;10398047;28;20104;-82
2022/12/09 10:45:57;;;;;;;3.17;2.58;;;;;;;-1.60;99.03;100550.00;10400774;28;20046;-84
2022/12/09 10:51:26;;;;;;;1.63;1.52;;;;;;;-1.67;98.95;100547.84;10404185;28;20045;-84
2022/12/09 10:56:30;;;;;;;3.00;2.38;;;;;;;-1.72;98.81;100558.66;10404588;28;20091;-84
2022/12/09 11:01:50;;;;;;;1.92;1.60;;;;;;;-1.71;99.23;100555.25;10404052;28;20049;-83
2022/12/09 11:06:55;;;;;;;0.70;0.70;;;;;;;-1.82;98.99;100552.03;10402707;28;20148;-84
2022/12/09 11:12:03;;;;;;;2.97;1.83;;;;;;;-1.78;98.91;100543.75;10398819;28;20107;-84
2022/12/09 11:17:20;;;;;;;1.38;1.27;;;;;;;-1.61;99.07;100547.34;10395932;28;20045;-86
2022/12/09 11:22:27;;;;;;;1.38;1.27;;;;;;;-1.42;99.48;100549.38;10392652;28;20095;-86
2022/12/09 11:27:32;;;;;;;1.65;1.55;;;;;;;-1.45;99.10;100539.78;10393657;28;20052;-86
2022/12/09 11:32:50;;;;;;;2.08;1.67;;;;;;;-1.47;99.38;100535.34;10395763;28;20813;-87
2022/12/09 11:37:52;;;;;;;2.78;2.28;;;;;;;-1.42;99.34;100531.41;10415542;28;20049;-87
2022/12/09 11:42:55;;;;;;;2.10;1.67;;;;;;;-1.34;99.36;100527.59;10458104;28;20052;-86
2022/12/09 11:48:03;;;;;;;5.47;2.88;;;;;;;-1.26;99.25;100533.22;10475784;28;20574;-84
2022/12/09 11:53:44;;;;;;;2.25;2.05;;;;;;;-1.39;99.36;100523.00;10452529;28;20106;-84
2022/12/09 11:59:08;;;;;;;1.65;1.55;;;;;;;-1.26;99.01;100525.53;10473727;28;20049;-84
2022/12/09 12:04:13;;;;;;;1.05;1.00;;;;;;;-1.23;99.02;100524.78;10480974;28;20505;-83
2022/12/09 12:09:27;;;;;;;1.10;1.00;;;;;;;-1.28;99.34;100522.81;10493796;28;20049;-81
2022/12/09 12:14:29;;;;;;;2.92;2.63;;;;;;;-1.23;99.48;100511.94;10461126;28;20602;-81
2022/12/09 12:19:34;;;;;;;22.52;5.85;;;;;;;-1.02;99.27;100514.91;10480744;28;20048;-81
2022/12/09 12:25:01;;;;;;;0.52;0.52;;;;;;;-0.99;99.19;100509.94;10453271;28;20064;-81
2022/12/09 12:30:03;;;;;;;2.47;2.03;;;;;;;-1.06;99.58;100511.28;10482261;28;20049;-80
2022/12/09 12:35:23;;;;;;;4.15;3.03;;;;;;;-1.16;99.28;100507.25;10484911;28;20056;-79
2022/12/09 12:40:28;;;;;;;2.37;2.17;;;;;;;-1.06;99.26;100513.84;10440303;28;20057;-79
2022/12/09 12:51:24;;;;;;;2.03;1.67;;;;;;;-0.92;99.66;100507.81;10447525;28;20572;-80
2022/12/09 12:56:39;;;;;;;0.75;0.75;;;;;;;-0.87;99.57;100499.50;10453649;28;20033;-79
2022/12/09 13:01:43;;;;;;;4.47;2.42;;;;;;;-0.93;99.52;100500.03;10457510;28;20045;-79
2022/12/09 13:06:53;;;;;;;3.90;3.42;;;;;;;-0.99;99.44;100489.38;10428289;28;20037;-80
2022/12/09 13:12:04;;;;;;;3.20;2.05;;;;;;;-1.03;99.40;100492.59;10449088;28;20497;-79
2022/12/09 13:17:12;;;;;;;1.52;1.17;;;;;;;-0.96;99.54;100500.75;10446669;28;20032;-80
2022/12/09 13:22:51;;;;;;;2.00;1.80;;;;;;;-0.80;99.37;100491.34;10445674;28;20057;-79
2022/12/09 13:28:18;;;;;;;2.92;2.05;;;;;;;-0.75;99.64;100500.22;10438337;28;20404;-80
2022/12/09 13:33:50;;;;;;;4.25;2.47;;;;;;;-0.86;99.21;100496.13;10447474;28;20056;-80
2022/12/09 13:38:52;;;;;;;2.72;2.47;;;;;;;-0.88;99.34;100493.47;10440403;28;20043;-80
2022/12/09 13:44:06;;;;;;;7.82;3.65;;;;;;;-0.81;99.69;100494.72;10473990;28;20052;-79
2022/12/09 13:49:18;;;;;;;6.65;3.40;;;;;;;-0.82;99.63;100478.41;10473419;28;20060;-79
2022/12/09 13:54:28;;;;;;;1.95;1.38;;;;;;;-0.71;98.99;100486.72;10446750;28;20048;-80
2022/12/09 13:59:41;;;;;;;2.03;1.30;;;;;;;-0.68;99.30;100486.91;10468370;28;20059;-81
2022/12/09 14:05:14;;;;;;;5.15;2.70;;;;;;;-0.65;99.36;100492.22;10448319;28;20483;-79
2022/12/09 14:10:45;;;;;;;2.33;2.13;;;;;;;-0.68;99.19;100486.91;10445288;28;20049;-79
2022/12/09 14:16:06;;;;;;;1.13;0.97;;;;;;;-0.71;99.05;100497.03;10452936;28;20093;-80
2022/12/09 14:21:17;;;;;;;1.83;1.50;;;;;;;-0.87;98.84;100481.50;10447410;28;20059;-80
2022/12/09 14:26:38;;;;;;;1.80;1.30;;;;;;;-0.87;98.97;100489.22;10448314;28;20131;-79
2022/12/09 14:31:59;;;;;;;3.42;1.42;;;;;;;-0.88;98.75;100493.47;10450611;28;20174;-80
2022/12/09 14:37:07;;;;;;;5.05;3.03;;;;;;;-0.83;98.77;100501.47;10451291;28;20128;-80
2022/12/09 14:42:21;;;;;;;10.88;1.85;;;;;;;-0.95;98.73;100506.78;10450951;28;20067;-81
2022/12/09 14:47:29;;;;;;;13.45;5.28;;;;;;;-0.98;98.74;100515.19;10450123;28;20465;-80
2022/12/09 14:52:32;;;;;;;2.97;2.15;;;;;;;-0.97;98.55;100509.25;10449974;28;20056;-78
2022/12/09 14:57:42;;;;;;;1.33;1.20;;;;;;;-0.96;98.39;100503.31;10447077;28;20052;-80
2022/12/09 15:02:50;;;;;;;2.28;1.58;;;;;;;-0.91;98.61;100504.47;10448411;28;20048;-80
2022/12/09 15:08:43;;;;;;;1.65;1.33;;;;;;;-0.93;98.44;100497.44;10471249;28;20036;-80
2022/12/09 15:13:51;;;;;;;1.63;1.35;;;;;;;-0.91;98.65;100498.44;10471692;28;20047;-80
2022/12/09 15:18:53;;;;;;;3.63;3.28;;;;;;;-0.87;98.53;100509.78;10488694;28;20052;-79
2022/12/09 15:23:56;;;;;;;2.75;1.92;;;;;;;-0.80;98.29;100514.50;10455973;28;20091;-80
2022/12/09 15:28:59;;;;;;;4.05;3.33;;;;;;;-0.74;98.42;100513.16;10446996;28;20129;-79
2022/12/09 15:34:13;;;;;;;2.58;1.75;;;;;;;-0.68;98.29;100507.47;10452655;28;20057;-80
2022/12/09 15:39:24;;;;;;;2.05;1.80;;;;;;;-0.67;97.91;100504.13;10425285;28;20053;-79
2022/12/09 15:44:30;;;;;;;2.90;2.45;;;;;;;-0.66;98.16;100502.44;10418927;28;20536;-80
2022/12/09 15:49:38;;;;;;;4.18;2.35;;;;;;;-0.66;98.28;100510.16;10444803;28;20071;-81
2022/12/09 15:54:42;;;;;;;1.30;1.23;;;;;;;-0.69;98.17;100510.88;10440487;28;20044;-81
2022/12/09 15:59:50;;;;;;;2.40;2.20;;;;;;;-0.70;98.12;100501.38;10450039;28;20053;-80
2022/12/09 16:05:00;;;;;;;3.47;3.15;;;;;;;-0.59;98.00;100500.28;10430000;28;20117;-79
2022/12/09 16:10:08;;;;;;;1.83;1.58;;;;;;;-0.56;97.73;100495.31;10425965;28;20045;-79
2022/12/09 16:15:13;;;;;;;5.13;2.95;;;;;;;-0.54;97.97;100501.47;10455432;28;20489;-79
2022/12/09 16:20:30;;;;;;;2.45;2.15;;;;;;;-0.56;97.70;100492.75;10468687;28;20052;-80
2022/12/09 16:25:41;;;;;;;5.13;3.47;;;;;;;-0.49;97.81;100498.28;10441911;28;20083;-79
2022/12/09 16:30:45;;;;;;;5.32;4.82;;;;;;;-0.40;97.92;100501.34;10466710;28;20044;-79
2022/12/09 16:36:18;;;;;;;3.88;2.85;;;;;;;-0.45;97.38;100511.38;10440316;28;20037;-81
2022/12/09 16:41:51;;;;;;;2.28;1.85;;;;;;;-0.43;97.52;100501.19;10454477;28;20047;-81
2022/12/09 16:47:08;;;;;;;3.92;2.70;;;;;;;-0.46;97.38;100503.59;10464381;28;20055;-81
2022/12/09 16:52:12;;;;;;;2.13;1.48;;;;;;;-0.49;97.29;100498.28;10469079;28;20088;-81
2022/12/09 16:57:18;;;;;;;1.65;1.55;;;;;;;-0.51;97.36;100505.91;10442252;28;20049;-80
2022/12/09 17:02:28;;;;;;;3.88;3.40;;;;;;;-0.49;97.12;100498.28;10456060;28;20041;-82
2022/12/09 17:07:29;;;;;;;3.60;3.28;;;;;;;-0.44;97.40;100505.41;10455753;28;20052;-82
2022/12/09 17:12:31;;;;;;;4.10;3.38;;;;;;;-0.52;96.96;100514.41;10456664;28;20053;-83
2022/12/09 17:17:33;;;;;;;4.35;3.10;;;;;;;-0.49;97.13;100509.44;10471160;28;20094;-85
2022/12/09 17:22:35;;;;;;;1.75;1.35;;;;;;;-0.46;97.12;100519.03;10446029;28;20412;-87
2022/12/09 17:27:36;;;;;;;2.28;2.08;;;;;;;-0.45;97.02;100521.69;10457285;28;20430;-85
2022/12/09 17:32:38;;;;;;;4.65;3.38;;;;;;;-0.41;97.23;100522.72;10453947;28;20060;-87
2022/12/09 17:37:41;;;;;;;2.50;1.83;;;;;;;-0.39;96.69;100523.69;10387490;28;20059;-85
2022/12/09 17:42:43;;;;;;;3.35;3.00;;;;;;;-0.42;97.14;100537.28;10409446;28;20045;-87
2022/12/09 17:47:47;;;;;;;4.03;3.63;;;;;;;-0.41;97.01;100538.16;10443315;28;20049;-82
2022/12/09 17:52:49;;;;;;;3.78;3.38;;;;;;;-0.42;97.05;100546.66;10420155;28;20049;-84
2022/12/09 17:57:50;;;;;;;4.97;2.83;;;;;;;-0.44;96.82;100544.00;10437602;28;20053;-86
2022/12/09 18:02:54;;;;;;;7.57;4.25;;;;;;;-0.48;96.98;100542.09;10438897;28;20562;-84
2022/12/09 18:07:56;;;;;;;11.32;2.53;;;;;;;-0.47;97.21;100553.25;10455163;28;20064;-84
2022/12/09 18:12:58;;;;;;;3.78;3.03;;;;;;;-0.49;96.75;100549.72;10446616;28;20041;-84
2022/12/09 18:17:59;;;;;;;3.03;2.35;;;;;;;-0.46;97.23;100560.19;10442414;28;20579;-84
2022/12/09 18:23:01;;;;;;;1.73;1.60;;;;;;;-0.42;96.90;100551.81;10456183;28;20049;-84
2022/12/09 18:28:02;;;;;;;10.25;2.88;;;;;;;-0.45;97.02;100555.13;10453521;28;20045;-84
2022/12/09 18:33:04;;;;;;;1.73;1.52;;;;;;;-0.47;96.86;100574.72;10431629;28;20049;-84
2022/12/09 18:38:06;;;;;;;4.63;2.83;;;;;;;-0.47;97.07;100571.25;10421387;28;20420;-85
2022/12/09 18:43:13;;;;;;;3.53;3.00;;;;;;;-0.46;96.92;100560.19;10443628;28;20109;-84
2022/12/09 18:48:14;;;;;;;2.65;1.63;;;;;;;-0.45;96.70;100560.25;10420911;28;20045;-85
2022/12/09 18:53:16;;;;;;;5.65;2.13;;;;;;;-0.49;96.64;100560.00;10432659;28;20040;-85
2022/12/09 18:58:18;;;;;;;3.10;2.35;;;;;;;-0.54;96.72;100557.16;10467360;28;20136;-85
2022/12/09 19:03:39;;;;;;;1.95;1.75;;;;;;;-0.45;96.67;100567.06;10450382;28;20056;-85
2022/12/09 19:08:41;;;;;;;3.13;2.55;;;;;;;-0.49;96.83;100563.44;10460214;28;20045;-84
2022/12/09 19:13:42;;;;;;;3.40;1.70;;;;;;;-0.47;96.58;100573.81;10447931;28;20060;-85
2022/12/09 19:18:44;;;;;;;2.90;1.65;;;;;;;-0.47;96.82;100578.97;10444233;28;20558;-87
2022/12/09 19:23:46;;;;;;;4.25;2.75;;;;;;;-0.44;96.84;100579.16;10470093;28;20045;-84
2022/12/09 19:28:54;;;;;;;4.50;2.45;;;;;;;-0.47;96.72;100584.13;10446761;28;20412;-85
2022/12/09 19:33:58;;;;;;;2.92;2.50;;;;;;;-0.41;97.21;100594.75;10449332;28;20049;-83
2022/12/09 19:39:01;;;;;;;3.15;2.80;;;;;;;-0.41;96.80;100590.50;10445884;28;20055;-84
2022/12/09 19:44:04;;;;;;;5.40;3.58;;;;;;;-0.48;96.47;100596.09;10452114;28;20056;-84
2022/12/09 19:49:14;;;;;;;2.25;1.73;;;;;;;-0.43;96.82;100584.38;10455223;28;20272;-84
2022/12/09 19:54:16;;;;;;;2.92;2.13;;;;;;;-0.36;96.49;100595.94;10445090;28;20045;-84
2022/12/09 19:59:18;;;;;;;4.00;2.30;;;;;;;-0.36;96.92;100595.94;10455351;28;20106;-85
2022/12/09 20:04:22;;;;;;;3.30;2.83;;;;;;;-0.39;96.70;100603.44;10443517;28;20420;-84
2022/12/09 20:09:43;;;;;;;2.28;2.08;;;;;;;-0.38;96.63;100605.22;10434848;28;20453;-84
2022/12/09 20:14:45;;;;;;;1.83;1.35;;;;;;;-0.39;96.42;100609.50;10476289;28;20124;-83
2022/12/09 20:19:46;;;;;;;1.65;1.52;;;;;;;-0.41;96.72;100613.66;10446819;28;20420;-84
2022/12/09 20:24:48;;;;;;;1.73;1.52;;;;;;;-0.43;96.85;100620.41;10401458;28;20259;-86
2022/12/09 20:29:49;;;;;;;3.92;2.35;;;;;;;-0.39;96.59;100619.78;10467556;28;20128;-84
2022/12/09 20:34:52;;;;;;;2.72;2.53;;;;;;;-0.44;96.67;100610.91;10441291;28;20053;-83
2022/12/09 20:39:54;;;;;;;4.43;3.35;;;;;;;-0.49;96.83;100608.88;10436457;28;20602;-84
2022/12/09 20:44:56;;;;;;;2.15;1.95;;;;;;;-0.43;96.68;100614.38;10426777;28;20116;-84
2022/12/09 20:49:57;;;;;;;3.30;2.80;;;;;;;-0.40;96.63;100619.69;10443771;28;20045;-84
2022/12/09 20:54:59;;;;;;;4.60;3.08;;;;;;;-0.43;96.81;100619.53;10463824;28;20057;-84
2022/12/09 21:00:01;;;;;;;3.88;3.08;;;;;;;-0.41;96.45;100628.22;10454114;28;20156;-84
2022/12/09 21:05:02;;;;;;;2.70;2.47;;;;;;;-0.42;96.80;100624.75;10443187;28;20172;-84
2022/12/09 21:10:04;;;;;;;1.77;1.65;;;;;;;-0.39;96.67;100629.19;10458144;28;20607;-84
2022/12/09 21:15:07;;;;;;;2.13;1.80;;;;;;;-0.39;96.65;100630.09;10447582;28;20543;-84
2022/12/09 21:20:09;;;;;;;5.13;2.72;;;;;;;-0.41;96.93;100625.63;10438613;28;20042;-85
2022/12/09 21:25:11;;;;;;;1.38;1.02;;;;;;;-0.47;96.67;100625.28;10470488;28;20036;-83
2022/12/09 21:30:12;;;;;;;6.20;3.10;;;;;;;-0.48;96.30;100619.25;10465815;28;20041;-85
2022/12/09 21:35:14;;;;;;;2.53;2.33;;;;;;;-0.51;96.55;100624.22;10473445;28;20045;-84
2022/12/09 21:40:22;;;;;;;3.25;2.35;;;;;;;-0.52;96.57;100624.13;10483505;28;20036;-83
2022/12/09 21:45:24;;;;;;;3.05;2.75;;;;;;;-0.54;96.07;100624.91;10436504;28;20049;-84
2022/12/09 21:50:26;;;;;;;4.95;1.35;;;;;;;-0.59;95.98;100623.75;10433093;28;20124;-83
2022/12/09 21:55:28;;;;;;;1.35;1.10;;;;;;;-0.66;96.38;100624.19;10449197;28;20044;-82
2022/12/09 22:00:31;;;;;;;1.98;1.58;;;;;;;-0.72;96.00;100628.97;10451612;28;20041;-82
2022/12/09 22:05:33;;;;;;;2.38;2.00;;;;;;;-0.77;95.98;100633.81;10432807;28;20067;-82
2022/12/09 22:10:36;;;;;;;6.90;1.75;;;;;;;-0.85;96.22;100647.03;10450201;28;20045;-82
2022/12/09 22:15:38;;;;;;;3.47;2.83;;;;;;;-0.90;96.07;100639.03;10457282;28;20440;-82
2022/12/09 22:20:39;;;;;;;6.40;3.65;;;;;;;-0.93;95.75;100633.69;10431248;28;20105;-81
2022/12/09 22:26:06;;;;;;;7.68;3.83;;;;;;;-0.95;96.08;100646.44;10468397;28;20055;-83
2022/12/09 22:31:09;;;;;;;2.60;2.25;;;;;;;-0.96;95.95;100639.56;10461188;28;20099;-82
2022/12/09 22:36:13;;;;;;;4.45;2.70;;;;;;;-1.05;96.18;100638.09;10451860;28;20076;-81
2022/12/09 22:41:17;;;;;;;2.75;2.30;;;;;;;-1.13;96.04;100648.78;10438880;28;20052;-84
2022/12/09 22:46:23;;;;;;;2.15;1.73;;;;;;;-1.19;96.14;100640.69;10474237;28;20504;-86
2022/12/09 22:51:28;;;;;;;2.35;1.98;;;;;;;-1.22;96.06;100644.78;10436457;28;20382;-80
2022/12/09 22:56:31;;;;;;;2.55;1.85;;;;;;;-1.23;95.98;100651.59;10441297;28;20045;-83
2022/12/09 23:01:36;;;;;;;3.38;3.08;;;;;;;-1.21;96.22;100651.69;10454799;28;20043;-84
2022/12/09 23:06:38;;;;;;;3.78;1.98;;;;;;;-1.20;96.43;100643.16;10460841;28;20595;-81
2022/12/09 23:11:40;;;;;;;2.05;1.88;;;;;;;-1.24;96.37;100652.38;10430025;28;20048;-82
2022/12/09 23:16:43;;;;;;;3.70;2.53;;;;;;;-1.31;96.56;100661.38;10433222;28;20061;-80
2022/12/09 23:21:45;;;;;;;2.40;1.95;;;;;;;-1.36;96.57;100657.63;10438846;28;20051;-81
2022/12/09 23:26:46;;;;;;;2.13;1.77;;;;;;;-1.31;96.15;100661.38;10424224;28;20041;-82
2022/12/09 23:31:48;;;;;;;5.85;1.92;;;;;;;-1.27;96.54;100663.34;10441975;28;20497;-80
2022/12/09 23:36:50;;;;;;;3.33;1.95;;;;;;;-1.21;96.54;100667.09;10439281;28;20056;-83